createdAt,value
2017-01-12T00:00:09.756Z,100
2017-01-12T00:00:31.094Z,100
2017-01-12T00:00:52.427Z,100
2017-01-12T00:01:13.766Z,100
2017-01-12T00:01:35.103Z,100
2017-01-12T00:01:56.441Z,100
2017-01-12T00:02:17.811Z,100
2017-01-12T00:02:39.154Z,100
2017-01-12T00:03:00.486Z,100
2017-01-12T00:03:21.833Z,100
2017-01-12T00:03:43.189Z,100
2017-01-12T00:04:04.526Z,100
2017-01-12T00:04:25.881Z,100
2017-01-12T00:04:47.243Z,100
2017-01-12T00:05:08.658Z,100
2017-01-12T00:05:30.044Z,100
2017-01-12T00:05:51.397Z,100
2017-01-12T00:06:12.732Z,100
2017-01-12T00:06:34.091Z,100
2017-01-12T00:06:55.434Z,100
2017-01-12T00:07:16.783Z,100
2017-01-12T00:07:38.128Z,100
2017-01-12T00:07:59.477Z,100
2017-01-12T00:08:20.815Z,100
2017-01-12T00:08:42.181Z,100
2017-01-12T00:09:03.520Z,100
2017-01-12T00:09:24.877Z,100
2017-01-12T00:09:46.255Z,100
2017-01-12T00:10:07.612Z,100
2017-01-12T00:10:28.962Z,100
2017-01-12T00:10:50.315Z,100
2017-01-12T00:11:11.684Z,100
2017-01-12T00:11:33.046Z,100
2017-01-12T00:11:54.395Z,100
2017-01-12T00:12:15.763Z,100
2017-01-12T00:12:37.134Z,100
2017-01-12T00:12:58.483Z,100
2017-01-12T00:13:19.819Z,100
2017-01-12T00:13:41.183Z,100
2017-01-12T00:14:02.527Z,100
2017-01-12T00:14:23.897Z,100
2017-01-12T00:14:45.244Z,100
2017-01-12T00:15:06.597Z,100
2017-01-12T00:15:27.971Z,100
2017-01-12T00:15:49.309Z,100
2017-01-12T00:16:10.662Z,100
2017-01-12T00:16:32.008Z,100
2017-01-12T00:16:53.389Z,100
2017-01-12T00:17:14.729Z,100
2017-01-12T00:17:36.104Z,100
2017-01-12T00:17:57.457Z,99.8
2017-01-12T00:18:18.803Z,100
2017-01-12T00:18:40.205Z,100
2017-01-12T00:19:01.543Z,100
2017-01-12T00:19:22.887Z,100
2017-01-12T00:19:44.539Z,100
2017-01-12T00:20:05.861Z,99.8
2017-01-12T00:20:27.215Z,100
2017-01-12T00:20:48.599Z,100
2017-01-12T00:21:09.982Z,100
2017-01-12T00:21:31.314Z,100
2017-01-12T00:21:52.664Z,100
2017-01-12T00:22:14.018Z,100
2017-01-12T00:22:35.363Z,100
2017-01-12T00:22:56.698Z,100
2017-01-12T00:23:18.055Z,100
2017-01-12T00:23:39.375Z,100
2017-01-12T00:24:00.722Z,100
2017-01-12T00:24:22.081Z,100
2017-01-12T00:24:43.437Z,100
2017-01-12T00:25:04.810Z,100
2017-01-12T00:25:26.198Z,100
2017-01-12T00:25:47.534Z,100
2017-01-12T00:26:08.886Z,100
2017-01-12T00:26:30.278Z,100
2017-01-12T00:26:51.648Z,100
2017-01-12T00:27:13.024Z,100
2017-01-12T00:27:34.368Z,100
2017-01-12T00:27:55.698Z,100
2017-01-12T00:28:17.053Z,100
2017-01-12T00:28:38.411Z,100
2017-01-12T00:28:59.748Z,100
2017-01-12T00:29:21.107Z,100
2017-01-12T00:29:42.458Z,100
2017-01-12T00:30:03.821Z,100
2017-01-12T00:30:25.187Z,100
2017-01-12T00:30:46.530Z,100
2017-01-12T00:31:07.871Z,100
2017-01-12T00:31:29.214Z,100
2017-01-12T00:31:50.572Z,100
2017-01-12T00:32:11.916Z,100
2017-01-12T00:32:33.244Z,100
2017-01-12T00:32:54.603Z,100
2017-01-12T00:33:15.926Z,100
2017-01-12T00:33:37.272Z,100
2017-01-12T00:33:58.635Z,100
2017-01-12T00:34:19.967Z,100
2017-01-12T00:34:41.295Z,100
2017-01-12T00:35:02.635Z,100
2017-01-12T00:35:23.990Z,100
2017-01-12T00:35:45.328Z,100
2017-01-12T00:36:06.652Z,100
2017-01-12T00:36:27.989Z,100
2017-01-12T00:36:49.321Z,100
2017-01-12T00:37:10.671Z,100
2017-01-12T00:37:32.003Z,100
2017-01-12T00:37:53.348Z,100
2017-01-12T00:38:14.676Z,100
2017-01-12T00:38:36.022Z,100
2017-01-12T00:38:57.363Z,100
2017-01-12T00:39:18.708Z,100
2017-01-12T00:39:40.066Z,100
2017-01-12T00:40:01.430Z,100
2017-01-12T00:40:22.772Z,100
2017-01-12T00:40:44.103Z,100
2017-01-12T00:41:05.452Z,100
2017-01-12T00:41:26.793Z,100
2017-01-12T00:41:48.152Z,99.8
2017-01-12T00:42:09.501Z,100
2017-01-12T00:42:30.861Z,100
2017-01-12T00:42:52.205Z,99.9
2017-01-12T00:43:13.572Z,99.8
2017-01-12T00:43:34.919Z,99.8
2017-01-12T00:43:56.263Z,99.9
2017-01-12T00:44:17.605Z,99.5
2017-01-12T00:44:38.937Z,99.5
2017-01-12T00:45:00.280Z,99.3
2017-01-12T00:45:21.677Z,99.1
2017-01-12T00:45:43.012Z,99.8
2017-01-12T00:46:04.369Z,99.4
2017-01-12T00:46:25.708Z,99
2017-01-12T00:46:47.078Z,99
2017-01-12T00:47:08.411Z,98.6
2017-01-12T00:47:29.744Z,98.5
2017-01-12T00:47:51.091Z,98.9
2017-01-12T00:48:12.469Z,98.3
2017-01-12T00:48:33.821Z,99.2
2017-01-12T00:48:55.180Z,99.3
2017-01-12T00:49:16.536Z,99.2
2017-01-12T00:49:37.871Z,99.2
2017-01-12T00:49:59.223Z,99.1
2017-01-12T00:50:20.568Z,99.2
2017-01-12T00:50:41.919Z,99.2
2017-01-12T00:51:03.243Z,98.8
2017-01-12T00:51:24.618Z,98.3
2017-01-12T00:51:45.967Z,99
2017-01-12T00:52:07.298Z,99.1
2017-01-12T00:52:28.651Z,99
2017-01-12T00:52:50.007Z,99.2
2017-01-12T00:53:11.339Z,99.1
2017-01-12T00:53:32.670Z,99.3
2017-01-12T00:53:54.020Z,99.4
2017-01-12T00:54:15.367Z,99.1
2017-01-12T00:54:36.715Z,99.1
2017-01-12T00:54:58.063Z,99
2017-01-12T00:55:19.405Z,99.1
2017-01-12T00:55:40.747Z,99.3
2017-01-12T00:56:02.070Z,99.2
2017-01-12T00:56:23.411Z,99.4
2017-01-12T00:56:44.757Z,99.7
2017-01-12T00:57:06.118Z,99.3
2017-01-12T00:57:27.478Z,99.2
2017-01-12T00:57:48.812Z,99.6
2017-01-12T00:58:10.143Z,99.5
2017-01-12T00:58:31.482Z,99.4
2017-01-12T00:58:52.828Z,100
2017-01-12T00:59:14.176Z,99.8
2017-01-12T00:59:35.533Z,99.6
2017-01-12T00:59:56.898Z,100
2017-01-12T01:00:18.244Z,100
2017-01-12T01:00:39.590Z,99.6
2017-01-12T01:01:00.937Z,99.9
2017-01-12T01:01:22.287Z,99.7
2017-01-12T01:01:43.638Z,99.8
2017-01-12T01:02:04.996Z,99.8
2017-01-12T01:02:26.352Z,99.9
2017-01-12T01:02:47.729Z,99.6
2017-01-12T01:03:09.103Z,100
2017-01-12T01:03:30.447Z,99.7
2017-01-12T01:03:51.789Z,99.7
2017-01-12T01:04:13.132Z,99.7
2017-01-12T01:04:34.478Z,99.4
2017-01-12T01:04:55.841Z,100
2017-01-12T01:05:17.186Z,99.7
2017-01-12T01:05:38.548Z,99.9
2017-01-12T01:05:59.871Z,100
2017-01-12T01:06:21.222Z,100
2017-01-12T01:06:42.582Z,100
2017-01-12T01:07:03.963Z,100
2017-01-12T01:07:25.309Z,100
2017-01-12T01:07:46.650Z,99.8
2017-01-12T01:08:07.993Z,99.7
2017-01-12T01:08:29.353Z,99.8
2017-01-12T01:08:50.720Z,99.8
2017-01-12T01:09:12.062Z,99.9
2017-01-12T01:09:33.408Z,100
2017-01-12T01:09:54.747Z,100
2017-01-12T01:10:16.098Z,100
2017-01-12T01:10:37.444Z,100
2017-01-12T01:10:58.787Z,99.8
2017-01-12T01:11:20.140Z,99.4
2017-01-12T01:11:41.480Z,99.6
2017-01-12T01:12:02.860Z,100
2017-01-12T01:12:24.207Z,99.9
2017-01-12T01:12:45.581Z,100
2017-01-12T01:13:06.958Z,100
2017-01-12T01:13:28.332Z,100
2017-01-12T01:13:49.666Z,100
2017-01-12T01:14:11.028Z,99.7
2017-01-12T01:14:32.363Z,100
2017-01-12T01:14:53.718Z,99.7
2017-01-12T01:15:15.080Z,99.9
2017-01-12T01:15:36.426Z,100
2017-01-12T01:15:57.784Z,100
2017-01-12T01:16:19.142Z,100
2017-01-12T01:16:40.479Z,100
2017-01-12T01:17:01.872Z,99.4
2017-01-12T01:17:23.211Z,100
2017-01-12T01:17:44.558Z,99.5
2017-01-12T01:18:05.900Z,99.5
2017-01-12T01:18:27.258Z,99.5
2017-01-12T01:18:48.601Z,99.6
2017-01-12T01:19:09.964Z,100
2017-01-12T01:19:31.324Z,99.7
2017-01-12T01:19:52.715Z,100
2017-01-12T01:20:14.055Z,100
2017-01-12T01:20:35.407Z,100
2017-01-12T01:20:56.738Z,100
2017-01-12T01:21:18.094Z,100
2017-01-12T01:21:39.441Z,99.9
2017-01-12T01:22:00.834Z,100
2017-01-12T01:22:22.168Z,100
2017-01-12T01:22:43.526Z,100
2017-01-12T01:23:04.863Z,100
2017-01-12T01:23:26.226Z,100
2017-01-12T01:23:47.597Z,100
2017-01-12T01:24:08.983Z,100
2017-01-12T01:24:30.316Z,100
2017-01-12T01:24:51.665Z,100
2017-01-12T01:25:13.022Z,100
2017-01-12T01:25:34.364Z,100
2017-01-12T01:25:55.698Z,100
2017-01-12T01:26:17.038Z,100
2017-01-12T01:26:38.387Z,100
2017-01-12T01:26:59.748Z,100
2017-01-12T01:27:21.104Z,100
2017-01-12T01:27:42.433Z,100
2017-01-12T01:28:03.780Z,100
2017-01-12T01:28:25.126Z,100
2017-01-12T01:28:46.448Z,100
2017-01-12T01:29:07.824Z,100
2017-01-12T01:29:29.150Z,100
2017-01-12T01:29:50.522Z,100
2017-01-12T01:30:11.870Z,100
2017-01-12T01:30:33.231Z,100
2017-01-12T01:30:54.572Z,100
2017-01-12T01:31:15.913Z,100
2017-01-12T01:31:37.256Z,100
2017-01-12T01:31:58.589Z,100
2017-01-12T01:32:19.959Z,100
2017-01-12T01:32:41.302Z,100
2017-01-12T01:33:02.658Z,100
2017-01-12T01:33:23.997Z,100
2017-01-12T01:33:45.336Z,100
2017-01-12T01:34:06.673Z,100
2017-01-12T01:34:28.019Z,100
2017-01-12T01:34:49.360Z,100
2017-01-12T01:35:10.695Z,100
2017-01-12T01:35:32.037Z,100
2017-01-12T01:35:53.386Z,100
2017-01-12T01:36:14.734Z,100
2017-01-12T01:36:36.076Z,100
2017-01-12T01:36:57.415Z,100
2017-01-12T01:37:18.769Z,100
2017-01-12T01:37:40.102Z,100
2017-01-12T01:38:01.480Z,100
2017-01-12T01:38:22.811Z,100
2017-01-12T01:38:44.166Z,100
2017-01-12T01:39:05.507Z,100
2017-01-12T01:39:26.844Z,100
2017-01-12T01:39:48.221Z,100
2017-01-12T01:40:09.568Z,100
2017-01-12T01:40:30.923Z,100
2017-01-12T01:40:52.273Z,100
2017-01-12T01:41:13.606Z,100
2017-01-12T01:41:34.936Z,100
2017-01-12T01:41:56.285Z,100
2017-01-12T01:42:17.657Z,100
2017-01-12T01:42:38.979Z,100
2017-01-12T01:43:00.568Z,100
2017-01-12T01:43:21.905Z,100
2017-01-12T01:43:43.283Z,100
2017-01-12T01:44:04.616Z,100
2017-01-12T01:44:25.979Z,100
2017-01-12T01:44:47.328Z,100
2017-01-12T01:45:08.669Z,100
2017-01-12T01:45:30.006Z,100
2017-01-12T01:45:51.353Z,100
2017-01-12T01:46:12.733Z,100
2017-01-12T01:46:34.074Z,100
2017-01-12T01:46:55.389Z,100
2017-01-12T01:47:16.738Z,100
2017-01-12T01:47:38.072Z,100
2017-01-12T01:47:59.419Z,100
2017-01-12T01:48:20.780Z,100
2017-01-12T01:48:42.109Z,100
2017-01-12T01:49:03.458Z,100
2017-01-12T01:49:24.801Z,100
2017-01-12T01:49:46.176Z,100
2017-01-12T01:50:07.560Z,100
2017-01-12T01:50:28.932Z,100
2017-01-12T01:50:50.262Z,100
2017-01-12T01:51:11.602Z,100
2017-01-12T01:51:32.968Z,100
2017-01-12T01:51:54.287Z,100
2017-01-12T01:52:15.610Z,100
2017-01-12T01:52:36.958Z,100
2017-01-12T01:52:58.298Z,100
2017-01-12T01:53:19.644Z,100
2017-01-12T01:53:40.969Z,100
2017-01-12T01:54:02.338Z,100
2017-01-12T01:54:23.683Z,100
2017-01-12T01:54:45.017Z,100
2017-01-12T01:55:06.358Z,100
2017-01-12T01:55:27.718Z,100
2017-01-12T01:55:49.086Z,100
2017-01-12T01:56:10.428Z,100
2017-01-12T01:56:31.766Z,100
2017-01-12T01:56:53.105Z,100
2017-01-12T01:57:14.460Z,100
2017-01-12T01:57:35.797Z,100
2017-01-12T01:57:57.139Z,100
2017-01-12T01:58:18.498Z,100
2017-01-12T01:58:39.861Z,100
2017-01-12T01:59:01.220Z,100
2017-01-12T01:59:22.568Z,100
2017-01-12T01:59:43.927Z,100
2017-01-12T02:00:05.262Z,100
2017-01-12T02:00:26.601Z,100
2017-01-12T02:00:47.930Z,100
2017-01-12T02:01:09.257Z,100
2017-01-12T02:01:30.633Z,100
2017-01-12T02:01:51.982Z,100
2017-01-12T02:02:13.348Z,100
2017-01-12T02:02:34.688Z,100
2017-01-12T02:02:56.028Z,100
2017-01-12T02:03:17.352Z,100
2017-01-12T02:03:38.698Z,100
2017-01-12T02:04:00.057Z,100
2017-01-12T02:04:28.398Z,100
2017-01-12T02:04:49.744Z,100
2017-01-12T02:05:11.086Z,100
2017-01-12T02:05:32.431Z,100
2017-01-12T02:05:53.791Z,100
2017-01-12T02:06:15.171Z,100
2017-01-12T02:06:36.545Z,100
2017-01-12T02:06:57.889Z,100
2017-01-12T02:07:19.267Z,100
2017-01-12T02:07:40.606Z,100
2017-01-12T02:08:01.958Z,100
2017-01-12T02:08:23.314Z,100
2017-01-12T02:08:44.667Z,100
2017-01-12T02:09:06.009Z,100
2017-01-12T02:09:27.374Z,100
2017-01-12T02:09:48.727Z,100
2017-01-12T02:10:10.053Z,100
2017-01-12T02:10:31.428Z,100
2017-01-12T02:10:52.772Z,100
2017-01-12T02:11:14.149Z,100
2017-01-12T02:11:35.481Z,100
2017-01-12T02:11:56.845Z,100
2017-01-12T02:12:18.204Z,100
2017-01-12T02:12:39.570Z,100
2017-01-12T02:13:00.910Z,100
2017-01-12T02:13:22.252Z,100
2017-01-12T02:13:43.610Z,100
2017-01-12T02:14:05.004Z,100
2017-01-12T02:14:26.353Z,100
2017-01-12T02:14:47.715Z,100
2017-01-12T02:15:09.085Z,100
2017-01-12T02:15:30.475Z,100
2017-01-12T02:15:51.847Z,100
2017-01-12T02:16:13.198Z,100
2017-01-12T02:16:34.550Z,100
2017-01-12T02:16:55.873Z,100
2017-01-12T02:17:17.218Z,100
2017-01-12T02:17:38.562Z,100
2017-01-12T02:17:59.911Z,100
2017-01-12T02:18:21.264Z,100
2017-01-12T02:18:42.603Z,100
2017-01-12T02:19:03.950Z,100
2017-01-12T02:19:25.289Z,100
2017-01-12T02:19:46.637Z,100
2017-01-12T02:20:08.003Z,100
2017-01-12T02:20:29.361Z,100
2017-01-12T02:20:50.714Z,100
2017-01-12T02:21:12.080Z,100
2017-01-12T02:21:33.423Z,100
2017-01-12T02:21:54.748Z,100
2017-01-12T02:22:16.122Z,100
2017-01-12T02:22:37.464Z,100
2017-01-12T02:22:58.808Z,100
2017-01-12T02:23:20.141Z,100
2017-01-12T02:23:41.485Z,100
2017-01-12T02:24:02.828Z,100
2017-01-12T02:24:24.160Z,100
2017-01-12T02:24:45.507Z,100
2017-01-12T02:25:06.862Z,100
2017-01-12T02:25:28.230Z,100
2017-01-12T02:25:49.590Z,100
2017-01-12T02:26:10.941Z,100
2017-01-12T02:26:32.294Z,100
2017-01-12T02:26:53.618Z,100
2017-01-12T02:27:14.973Z,100
2017-01-12T02:27:36.305Z,100
2017-01-12T02:27:57.638Z,100
2017-01-12T02:28:18.976Z,100
2017-01-12T02:28:40.346Z,100
2017-01-12T02:29:01.678Z,100
2017-01-12T02:29:23.021Z,100
2017-01-12T02:29:44.383Z,100
2017-01-12T02:30:05.727Z,100
2017-01-12T02:30:27.079Z,100
2017-01-12T02:30:48.414Z,100
2017-01-12T02:31:09.756Z,100
2017-01-12T02:31:31.118Z,100
2017-01-12T02:31:52.464Z,100
2017-01-12T02:32:13.805Z,100
2017-01-12T02:32:35.132Z,100
2017-01-12T02:32:56.487Z,100
2017-01-12T02:33:17.821Z,100
2017-01-12T02:33:39.150Z,100
2017-01-12T02:34:00.483Z,100
2017-01-12T02:34:21.841Z,100
2017-01-12T02:34:43.177Z,100
2017-01-12T02:35:04.529Z,100
2017-01-12T02:35:25.886Z,100
2017-01-12T02:35:47.227Z,100
2017-01-12T02:36:08.569Z,100
2017-01-12T02:36:29.919Z,100
2017-01-12T02:36:51.259Z,100
2017-01-12T02:37:12.593Z,100
2017-01-12T02:37:33.922Z,100
2017-01-12T02:37:55.252Z,100
2017-01-12T02:38:16.601Z,100
2017-01-12T02:38:37.947Z,100
2017-01-12T02:38:59.301Z,100
2017-01-12T02:39:20.657Z,100
2017-01-12T02:39:42.003Z,100
2017-01-12T02:40:03.344Z,100
2017-01-12T02:40:24.692Z,100
2017-01-12T02:40:46.047Z,100
2017-01-12T02:41:07.404Z,100
2017-01-12T02:41:28.737Z,100
2017-01-12T02:41:50.063Z,100
2017-01-12T02:42:11.388Z,100
2017-01-12T02:42:32.740Z,100
2017-01-12T02:42:54.074Z,100
2017-01-12T02:43:15.421Z,100
2017-01-12T02:43:36.817Z,100
2017-01-12T02:43:58.136Z,100
2017-01-12T02:44:19.511Z,100
2017-01-12T02:44:40.849Z,100
2017-01-12T02:45:02.196Z,100
2017-01-12T02:45:23.533Z,100
2017-01-12T02:45:44.892Z,100
2017-01-12T02:46:06.227Z,100
2017-01-12T02:46:27.578Z,100
2017-01-12T02:46:48.914Z,100
2017-01-12T02:47:10.246Z,100
2017-01-12T02:47:31.613Z,100
2017-01-12T02:47:52.959Z,100
2017-01-12T02:48:14.330Z,100
2017-01-12T02:48:35.679Z,100
2017-01-12T02:48:57.069Z,100
2017-01-12T02:49:18.408Z,100
2017-01-12T02:49:39.750Z,100
2017-01-12T02:50:01.080Z,100
2017-01-12T02:50:22.428Z,100
2017-01-12T02:50:43.777Z,100
2017-01-12T02:51:05.133Z,100
2017-01-12T02:51:26.473Z,100
2017-01-12T02:51:47.799Z,100
2017-01-12T02:52:09.138Z,100
2017-01-12T02:52:30.480Z,100
2017-01-12T02:52:51.846Z,100
2017-01-12T02:53:13.172Z,100
2017-01-12T02:53:34.508Z,100
2017-01-12T02:53:55.856Z,100
2017-01-12T02:54:17.230Z,100
2017-01-12T02:54:38.602Z,100
2017-01-12T02:54:59.941Z,100
2017-01-12T02:55:21.297Z,100
2017-01-12T02:55:42.648Z,100
2017-01-12T02:56:03.993Z,100
2017-01-12T02:56:25.320Z,100
2017-01-12T02:56:46.682Z,100
2017-01-12T02:57:08.031Z,100
2017-01-12T02:57:29.357Z,100
2017-01-12T02:57:50.705Z,100
2017-01-12T02:58:12.058Z,100
2017-01-12T02:58:33.389Z,100
2017-01-12T02:58:54.734Z,100
2017-01-12T02:59:16.071Z,100
2017-01-12T02:59:37.418Z,100
2017-01-12T02:59:58.753Z,100
2017-01-12T03:00:20.109Z,100
2017-01-12T03:00:41.493Z,100
2017-01-12T03:01:02.840Z,100
2017-01-12T03:01:24.192Z,100
2017-01-12T03:01:45.546Z,100
2017-01-12T03:02:06.944Z,100
2017-01-12T03:02:28.354Z,100
2017-01-12T03:02:49.681Z,100
2017-01-12T03:03:11.022Z,100
2017-01-12T03:03:32.365Z,100
2017-01-12T03:03:53.720Z,100
2017-01-12T03:04:15.074Z,100
2017-01-12T03:04:36.461Z,100
2017-01-12T03:04:57.809Z,100
2017-01-12T03:05:19.144Z,100
2017-01-12T03:05:40.476Z,100
2017-01-12T03:06:01.819Z,100
2017-01-12T03:06:23.182Z,100
2017-01-12T03:06:44.526Z,100
2017-01-12T03:07:05.870Z,100
2017-01-12T03:07:27.236Z,100
2017-01-12T03:07:48.606Z,100
2017-01-12T03:08:09.933Z,100
2017-01-12T03:08:31.271Z,100
2017-01-12T03:08:52.624Z,100
2017-01-12T03:09:13.980Z,100
2017-01-12T03:09:35.314Z,100
2017-01-12T03:09:56.651Z,100
2017-01-12T03:10:18.003Z,100
2017-01-12T03:10:39.342Z,100
2017-01-12T03:11:00.702Z,100
2017-01-12T03:11:22.045Z,100
2017-01-12T03:11:43.390Z,100
2017-01-12T03:12:04.754Z,100
2017-01-12T03:12:26.098Z,100
2017-01-12T03:12:47.449Z,100
2017-01-12T03:13:08.789Z,100
2017-01-12T03:13:30.148Z,100
2017-01-12T03:13:51.499Z,100
2017-01-12T03:14:12.854Z,100
2017-01-12T03:14:34.190Z,100
2017-01-12T03:14:55.551Z,100
2017-01-12T03:15:16.878Z,100
2017-01-12T03:15:38.213Z,100
2017-01-12T03:15:59.550Z,100
2017-01-12T03:16:20.890Z,100
2017-01-12T03:16:42.239Z,100
2017-01-12T03:17:03.605Z,100
2017-01-12T03:17:24.948Z,100
2017-01-12T03:17:46.313Z,100
2017-01-12T03:18:07.652Z,100
2017-01-12T03:18:29.004Z,100
2017-01-12T03:18:50.355Z,100
2017-01-12T03:19:11.690Z,100
2017-01-12T03:19:33.030Z,100
2017-01-12T03:19:54.374Z,100
2017-01-12T03:20:15.727Z,100
2017-01-12T03:20:37.077Z,100
2017-01-12T03:20:58.459Z,100
2017-01-12T03:21:19.809Z,100
2017-01-12T03:21:41.155Z,100
2017-01-12T03:22:02.520Z,100
2017-01-12T03:22:23.911Z,100
2017-01-12T03:22:45.283Z,100
2017-01-12T03:23:06.628Z,100
2017-01-12T03:23:27.982Z,99.9
2017-01-12T03:23:49.327Z,100
2017-01-12T03:24:10.661Z,100
2017-01-12T03:24:32.019Z,100
2017-01-12T03:24:53.371Z,100
2017-01-12T03:25:14.747Z,100
2017-01-12T03:25:36.098Z,100
2017-01-12T03:25:57.475Z,100
2017-01-12T03:26:18.821Z,100
2017-01-12T03:26:40.166Z,99.8
2017-01-12T03:27:01.508Z,99.6
2017-01-12T03:27:22.896Z,100
2017-01-12T03:27:44.252Z,99.9
2017-01-12T03:28:05.600Z,99.9
2017-01-12T03:28:26.974Z,99.9
2017-01-12T03:28:48.357Z,100
2017-01-12T03:29:09.703Z,100
2017-01-12T03:29:31.075Z,99.9
2017-01-12T03:29:52.404Z,100
2017-01-12T03:30:13.742Z,100
2017-01-12T03:30:35.109Z,100
2017-01-12T03:30:56.453Z,100
2017-01-12T03:31:17.807Z,100
2017-01-12T03:31:39.163Z,100
2017-01-12T03:32:00.509Z,100
2017-01-12T03:32:21.867Z,99.8
2017-01-12T03:32:43.373Z,99.9
2017-01-12T03:33:04.709Z,99.9
2017-01-12T03:33:26.066Z,100
2017-01-12T03:33:47.403Z,100
2017-01-12T03:34:08.741Z,99.5
2017-01-12T03:34:30.063Z,100
2017-01-12T03:34:51.383Z,100
2017-01-12T03:35:12.725Z,99.6
2017-01-12T03:35:34.059Z,99.9
2017-01-12T03:35:55.417Z,99.9
2017-01-12T03:36:16.767Z,100
2017-01-12T03:36:38.135Z,99.9
2017-01-12T03:36:59.481Z,99.8
2017-01-12T03:37:20.816Z,100
2017-01-12T03:37:42.189Z,99.7
2017-01-12T03:38:03.544Z,99.3
2017-01-12T03:38:24.879Z,99.8
2017-01-12T03:38:46.216Z,99.4
2017-01-12T03:39:07.549Z,99.4
2017-01-12T03:39:28.892Z,99.3
2017-01-12T03:39:50.219Z,99.3
2017-01-12T03:40:11.554Z,99.3
2017-01-12T03:40:32.909Z,99.1
2017-01-12T03:40:54.256Z,98.9
2017-01-12T03:41:15.610Z,98.8
2017-01-12T03:41:36.957Z,98.7
2017-01-12T03:41:58.306Z,98.4
2017-01-12T03:42:19.665Z,98.8
2017-01-12T03:42:40.997Z,98.3
2017-01-12T03:43:02.332Z,98.9
2017-01-12T03:43:23.668Z,98.6
2017-01-12T03:43:45.004Z,98.5
2017-01-12T03:44:06.338Z,98.5
2017-01-12T03:44:27.677Z,99.2
2017-01-12T03:44:49.014Z,99.2
2017-01-12T03:45:10.354Z,99.1
2017-01-12T03:45:31.705Z,99.1
2017-01-12T03:45:53.036Z,98.9
2017-01-12T03:46:14.367Z,98.7
2017-01-12T03:46:35.704Z,98.9
2017-01-12T03:46:57.046Z,98.7
2017-01-12T03:47:18.415Z,98.8
2017-01-12T03:47:39.765Z,98.6
2017-01-12T03:48:01.099Z,98.7
2017-01-12T03:48:22.425Z,98.9
2017-01-12T03:48:43.789Z,99
2017-01-12T03:49:05.115Z,98.6
2017-01-12T03:49:26.449Z,98.6
2017-01-12T03:49:47.785Z,98.1
2017-01-12T03:50:09.136Z,98.7
2017-01-12T03:50:30.455Z,98.6
2017-01-12T03:50:51.816Z,98.3
2017-01-12T03:51:13.156Z,98.9
2017-01-12T03:51:34.517Z,98
2017-01-12T03:51:55.859Z,98
2017-01-12T03:52:17.205Z,98
2017-01-12T03:52:38.535Z,98.3
2017-01-12T03:52:59.887Z,98.7
2017-01-12T03:53:21.214Z,98.3
2017-01-12T03:53:42.599Z,99
2017-01-12T03:54:03.949Z,99
2017-01-12T03:54:25.290Z,98.7
2017-01-12T03:54:46.610Z,98.5
2017-01-12T03:55:07.975Z,99.1
2017-01-12T03:55:29.324Z,99
2017-01-12T03:55:50.664Z,98.5
2017-01-12T03:56:12.003Z,98.6
2017-01-12T03:56:33.342Z,99
2017-01-12T03:56:54.682Z,98.6
2017-01-12T03:57:16.018Z,98.4
2017-01-12T03:57:37.370Z,98.2
2017-01-12T03:57:58.736Z,98.7
2017-01-12T03:58:20.084Z,98.7
2017-01-12T03:58:41.429Z,98.7
2017-01-12T03:59:02.754Z,98.1
2017-01-12T03:59:24.116Z,98.6
2017-01-12T03:59:45.457Z,98.8
2017-01-12T04:00:06.815Z,98.6
2017-01-12T04:00:28.154Z,98.3
2017-01-12T04:00:49.562Z,99.1
2017-01-12T04:01:10.908Z,98.7
2017-01-12T04:01:32.234Z,98.9
2017-01-12T04:01:53.568Z,98.5
2017-01-12T04:02:14.935Z,98.5
2017-01-12T04:02:36.267Z,98.3
2017-01-12T04:02:57.611Z,98.5
2017-01-12T04:03:18.965Z,99.2
2017-01-12T04:03:40.302Z,98.7
2017-01-12T04:04:01.653Z,98.8
2017-01-12T04:04:23.001Z,98.3
2017-01-12T04:04:44.373Z,98.8
2017-01-12T04:05:05.706Z,98.9
2017-01-12T04:05:27.052Z,99.3
2017-01-12T04:05:48.403Z,99.1
2017-01-12T04:06:09.750Z,99.7
2017-01-12T04:06:31.090Z,99.1
2017-01-12T04:06:52.439Z,99
2017-01-12T04:07:13.767Z,99.6
2017-01-12T04:07:35.102Z,99.3
2017-01-12T04:07:56.453Z,99.1
2017-01-12T04:08:17.795Z,99.2
2017-01-12T04:08:39.131Z,99.5
2017-01-12T04:09:00.510Z,99.1
2017-01-12T04:09:21.835Z,99.1
2017-01-12T04:09:43.174Z,99.2
2017-01-12T04:10:04.522Z,99.1
2017-01-12T04:10:25.839Z,98.9
2017-01-12T04:10:47.163Z,99
2017-01-12T04:11:08.494Z,98.3
2017-01-12T04:11:29.848Z,98.7
2017-01-12T04:11:51.181Z,99
2017-01-12T04:12:12.525Z,98.5
2017-01-12T04:12:33.864Z,98.3
2017-01-12T04:12:55.205Z,98.3
2017-01-12T04:13:16.566Z,98.9
2017-01-12T04:13:37.919Z,98.8
2017-01-12T04:13:59.270Z,98.5
2017-01-12T04:14:20.620Z,98.6
2017-01-12T04:14:41.956Z,98.8
2017-01-12T04:15:03.294Z,98.9
2017-01-12T04:15:24.652Z,99
2017-01-12T04:15:45.987Z,98.6
2017-01-12T04:16:07.372Z,98.4
2017-01-12T04:16:28.722Z,98.1
2017-01-12T04:16:50.061Z,98.4
2017-01-12T04:17:11.411Z,97.9
2017-01-12T04:17:32.731Z,98.1
2017-01-12T04:17:54.073Z,98.1
2017-01-12T04:18:15.414Z,98.2
2017-01-12T04:18:36.775Z,98.2
2017-01-12T04:18:58.113Z,98.8
2017-01-12T04:19:19.450Z,98.2
2017-01-12T04:19:40.794Z,98.8
2017-01-12T04:20:02.143Z,98.4
2017-01-12T04:20:23.458Z,98.5
2017-01-12T04:20:44.821Z,98.5
2017-01-12T04:21:06.185Z,99
2017-01-12T04:21:27.558Z,99.2
2017-01-12T04:21:48.904Z,98.4
2017-01-12T04:22:10.255Z,98.2
2017-01-12T04:22:31.584Z,99.1
2017-01-12T04:22:52.935Z,98.4
2017-01-12T04:23:14.277Z,98.2
2017-01-12T04:23:35.632Z,98.7
2017-01-12T04:23:56.982Z,98.5
2017-01-12T04:24:18.319Z,98.1
2017-01-12T04:24:39.644Z,98.3
2017-01-12T04:25:00.985Z,98.2
2017-01-12T04:25:22.316Z,98
2017-01-12T04:25:43.682Z,98.1
2017-01-12T04:26:05.035Z,97.9
2017-01-12T04:26:26.414Z,98.4
2017-01-12T04:26:47.773Z,99.1
2017-01-12T04:27:09.116Z,98
2017-01-12T04:27:30.453Z,98.2
2017-01-12T04:27:51.800Z,98.3
2017-01-12T04:28:13.138Z,98.3
2017-01-12T04:28:34.464Z,98.4
2017-01-12T04:28:55.816Z,98.3
2017-01-12T04:29:17.161Z,98.7
2017-01-12T04:29:38.498Z,98.3
2017-01-12T04:29:59.826Z,98.6
2017-01-12T04:30:21.180Z,98.3
2017-01-12T04:30:42.521Z,98
2017-01-12T04:31:03.877Z,97.9
2017-01-12T04:31:25.232Z,98.8
2017-01-12T04:31:46.565Z,98.6
2017-01-12T04:32:07.893Z,98.3
2017-01-12T04:32:29.245Z,98.8
2017-01-12T04:32:50.595Z,98.3
2017-01-12T04:33:11.935Z,98
2017-01-12T04:33:33.283Z,98.9
2017-01-12T04:33:54.622Z,98.6
2017-01-12T04:34:15.967Z,98.6
2017-01-12T04:34:37.325Z,98.9
2017-01-12T04:34:58.661Z,98.3
2017-01-12T04:35:19.995Z,98.3
2017-01-12T04:35:41.398Z,98.1
2017-01-12T04:36:02.742Z,97.7
2017-01-12T04:36:24.096Z,97.9
2017-01-12T04:36:45.447Z,97.5
2017-01-12T04:37:06.796Z,97.6
2017-01-12T04:37:28.145Z,97.6
2017-01-12T04:37:49.505Z,97.6
2017-01-12T04:38:10.856Z,97.8
2017-01-12T04:38:32.209Z,98.2
2017-01-12T04:38:53.540Z,98.1
2017-01-12T04:39:15.253Z,97.7
2017-01-12T04:39:38.246Z,97.5
2017-01-12T04:39:59.672Z,97.9
2017-01-12T04:40:21.030Z,97.7
2017-01-12T04:40:42.369Z,97.8
2017-01-12T04:41:03.693Z,97.4
2017-01-12T04:41:25.026Z,97.7
2017-01-12T04:41:46.383Z,97.5
2017-01-12T04:42:07.728Z,97.5
2017-01-12T04:42:29.086Z,97.5
2017-01-12T04:42:50.420Z,97.3
2017-01-12T04:43:11.786Z,97.4
2017-01-12T04:43:33.157Z,97.4
2017-01-12T04:43:54.504Z,97.2
2017-01-12T04:44:15.835Z,97.7
2017-01-12T04:44:37.182Z,97.4
2017-01-12T04:44:58.523Z,97
2017-01-12T04:45:19.853Z,96.7
2017-01-12T04:45:41.207Z,96.9
2017-01-12T04:46:02.537Z,96.6
2017-01-12T04:46:23.862Z,96.5
2017-01-12T04:46:45.215Z,96.4
2017-01-12T04:47:06.536Z,96.4
2017-01-12T04:47:27.868Z,96.4
2017-01-12T04:47:49.192Z,96.4
2017-01-12T04:48:10.525Z,96.6
2017-01-12T04:48:31.863Z,96.5
2017-01-12T04:48:53.224Z,97.2
2017-01-12T04:49:14.569Z,97.1
2017-01-12T04:49:35.886Z,96.7
2017-01-12T04:49:57.221Z,96.7
2017-01-12T04:50:18.573Z,96.4
2017-01-12T04:50:39.956Z,96.4
2017-01-12T04:51:01.294Z,96.3